Time;durP1;ratioP1;P1;durP2;ratioP2;P2;SDS_P1;SDS_P2;PMS_P1;PMS_P2;Temp;Humidity;BMP_temperature;BMP_pressure;BME280_temperature;BME280_humidity;BME280_pressure;Samples;Min_cycle;Max_cycle;Signal;HPM_P1;HPM_P2
2021/04/28 00:01:57;;;;;;;4.22;2.28;;;7.40;61.30;;;;;;5092967;28;20730;-71
2021/04/28 00:04:24;;;;;;;3.55;2.25;;;7.40;61.70;;;;;;5087673;28;20215;-71
2021/04/28 00:06:51;;;;;;;2.22;1.70;;;7.30;62.20;;;;;;5101898;28;20517;-71
2021/04/28 00:09:18;;;;;;;3.35;2.20;;;7.20;62.80;;;;;;5093387;28;20256;-73
2021/04/28 00:11:45;;;;;;;5.78;2.38;;;7.20;63.00;;;;;;5097095;28;20221;-70
2021/04/28 00:14:11;;;;;;;2.80;2.22;;;7.10;63.30;;;;;;5101457;28;20247;-73
2021/04/28 00:16:39;;;;;;;4.80;2.42;;;7.10;64.00;;;;;;5096243;28;20207;-71
2021/04/28 00:19:06;;;;;;;5.00;3.08;;;7.10;64.50;;;;;;5104715;28;20202;-72
2021/04/28 00:21:32;;;;;;;3.47;2.03;;;7.00;65.10;;;;;;5101966;28;20198;-71
2021/04/28 00:23:59;;;;;;;2.85;2.15;;;7.00;65.60;;;;;;5090435;28;20561;-72
2021/04/28 00:26:27;;;;;;;2.50;2.15;;;7.00;65.80;;;;;;5081178;28;20261;-69
2021/04/28 00:28:53;;;;;;;4.40;2.33;;;7.00;66.00;;;;;;5089288;28;20289;-70
2021/04/28 00:31:20;;;;;;;9.80;2.17;;;7.00;66.40;;;;;;5099624;28;20285;-73
2021/04/28 00:33:49;;;;;;;4.22;2.55;;;7.00;66.50;;;;;;5104743;28;20225;-72
2021/04/28 00:36:16;;;;;;;5.63;2.58;;;7.00;66.90;;;;;;5110877;28;20578;-71
2021/04/28 00:38:42;;;;;;;2.65;2.00;;;6.90;67.50;;;;;;5090638;28;20214;-70
2021/04/28 00:41:10;;;;;;;3.13;2.30;;;6.90;68.10;;;;;;5093587;28;20209;-70
2021/04/28 00:43:37;;;;;;;3.83;2.30;;;6.80;68.40;;;;;;5100828;28;20225;-72
2021/04/28 00:46:05;;;;;;;5.53;2.20;;;6.70;69.00;;;;;;5101964;28;20194;-72
2021/04/28 00:48:32;;;;;;;3.80;2.10;;;6.70;69.60;;;;;;5112991;28;20204;-72
2021/04/28 00:51:00;;;;;;;3.38;2.08;;;6.70;70.20;;;;;;5091395;28;20205;-71
2021/04/28 00:53:26;;;;;;;5.63;1.75;;;6.70;70.90;;;;;;5097960;28;20214;-71
2021/04/28 00:55:56;;;;;;;3.08;2.35;;;6.70;71.30;;;;;;5086594;28;20252;-70
2021/04/28 00:58:24;;;;;;;4.93;2.28;;;6.60;72.20;;;;;;5099980;28;20210;-71
2021/04/28 01:00:51;;;;;;;4.07;2.45;;;6.60;72.70;;;;;;5092825;28;20206;-69
2021/04/28 01:03:21;;;;;;;2.58;2.00;;;6.60;73.10;;;;;;5093153;28;20579;-72
2021/04/28 01:05:48;;;;;;;3.47;2.25;;;6.50;74.00;;;;;;5093696;28;20251;-73
2021/04/28 01:08:17;;;;;;;4.07;2.00;;;6.50;74.40;;;;;;5092254;28;20657;-72
2021/04/28 01:10:45;;;;;;;3.67;3.38;;;6.40;75.10;;;;;;5093250;28;20214;-72
2021/04/28 01:13:11;;;;;;;3.10;2.42;;;6.50;75.80;;;;;;5092863;28;20210;-71
2021/04/28 01:15:39;;;;;;;2.70;1.98;;;6.50;76.20;;;;;;5091323;28;20248;-72
2021/04/28 01:18:06;;;;;;;2.88;1.80;;;6.40;77.00;;;;;;5102548;28;20568;-72
2021/04/28 01:20:36;;;;;;;3.95;2.15;;;6.40;77.40;;;;;;5095940;28;20205;-70
2021/04/28 01:23:05;;;;;;;7.45;2.15;;;6.40;78.20;;;;;;5093769;28;20241;-71
2021/04/28 01:25:33;;;;;;;3.42;2.00;;;6.40;78.80;;;;;;5099008;28;20201;-71
2021/04/28 01:28:03;;;;;;;3.85;2.47;;;6.30;79.20;;;;;;5089142;28;20204;-70
2021/04/28 01:30:34;;;;;;;3.95;1.88;;;6.30;80.10;;;;;;5086153;28;20198;-71
2021/04/28 01:33:01;;;;;;;3.10;2.20;;;6.30;80.50;;;;;;5098304;28;20242;-72
2021/04/28 01:35:30;;;;;;;7.63;2.45;;;6.20;81.30;;;;;;5087812;28;20213;-71
2021/04/28 01:37:57;;;;;;;6.53;2.33;;;6.20;81.80;;;;;;5104457;28;20273;-73
2021/04/28 01:40:26;;;;;;;5.65;1.90;;;6.10;82.50;;;;;;5092692;28;20239;-71
2021/04/28 01:42:54;;;;;;;4.13;2.45;;;6.10;83.30;;;;;;5101034;28;20538;-71
2021/04/28 01:45:21;;;;;;;6.78;2.35;;;6.10;83.70;;;;;;5090429;28;20194;-72
2021/04/28 01:47:49;;;;;;;3.65;2.40;;;6.10;84.10;;;;;;5096892;28;20205;-72
2021/04/28 01:50:18;;;;;;;2.70;2.22;;;6.10;84.60;;;;;;5102133;28;20210;-72
2021/04/28 01:52:46;;;;;;;8.40;2.42;;;6.10;85.00;;;;;;5098378;28;20202;-74
2021/04/28 01:55:14;;;;;;;4.88;2.58;;;6.00;85.40;;;;;;5102397;28;20690;-71
2021/04/28 01:57:42;;;;;;;3.10;2.00;;;6.00;85.80;;;;;;5093792;28;20221;-73
2021/04/28 02:00:12;;;;;;;4.28;2.80;;;5.90;86.40;;;;;;5089537;28;20240;-72
2021/04/28 02:02:40;;;;;;;4.55;2.70;;;5.90;87.20;;;;;;5087246;28;20202;-70
2021/04/28 02:05:09;;;;;;;5.15;2.50;;;5.90;87.60;;;;;;5083760;28;20223;-72
2021/04/28 02:07:36;;;;;;;3.80;2.42;;;5.90;88.20;;;;;;5098028;28;20206;-70
2021/04/28 02:10:08;;;;;;;3.67;2.60;;;5.90;88.30;;;;;;5096045;28;20279;-71
2021/04/28 02:12:35;;;;;;;4.40;2.33;;;5.80;89.20;;;;;;5093712;28;20208;-71
2021/04/28 02:15:12;;;;;;;4.20;2.42;;;5.80;88.90;;;;;;5092356;28;20222;-72
2021/04/28 02:17:40;;;;;;;3.17;2.85;;;5.80;89.70;;;;;;5084692;28;20226;-73
2021/04/28 02:20:09;;;;;;;4.10;2.33;;;5.80;89.90;;;;;;5099475;28;20198;-73
2021/04/28 02:22:39;;;;;;;7.70;2.88;;;5.80;90.20;;;;;;5099394;28;20195;-72
2021/04/28 02:25:07;;;;;;;4.93;3.10;;;5.80;90.30;;;;;;5091916;28;20210;-70
2021/04/28 02:27:34;;;;;;;4.43;3.47;;;5.80;90.70;;;;;;5093181;28;20245;-71
2021/04/28 02:30:02;;;;;;;5.78;3.00;;;5.80;90.50;;;;;;5091545;28;20217;-71
2021/04/28 02:32:29;;;;;;;6.45;2.72;;;5.70;90.60;;;;;;5090298;28;20225;-73
2021/04/28 02:34:56;;;;;;;7.07;2.95;;;5.60;91.00;;;;;;5089906;28;20238;-72
2021/04/28 02:37:27;;;;;;;3.88;3.03;;;5.60;91.20;;;;;;5107616;28;20206;-70
2021/04/28 02:40:02;;;;;;;3.15;2.75;;;5.60;91.20;;;;;;5087566;28;20567;-73
2021/04/28 02:42:28;;;;;;;5.72;3.47;;;5.60;91.40;;;;;;5088382;28;20277;-73
2021/04/28 02:44:58;;;;;;;2.60;2.40;;;5.50;91.50;;;;;;5092877;28;20222;-71
2021/04/28 02:47:27;;;;;;;6.18;4.45;;;5.60;91.80;;;;;;5085551;28;20198;-69
2021/04/28 02:49:55;;;;;;;4.00;2.92;;;5.50;91.80;;;;;;5106738;28;20216;-70
2021/04/28 02:52:22;;;;;;;4.85;3.38;;;5.50;92.00;;;;;;5080030;28;20202;-71
2021/04/28 02:54:51;;;;;;;4.15;2.90;;;5.50;92.00;;;;;;5091207;28;20226;-73
2021/04/28 02:57:20;;;;;;;4.10;3.08;;;5.40;92.00;;;;;;5091223;28;20210;-71
2021/04/28 02:59:50;;;;;;;3.80;2.80;;;5.40;92.30;;;;;;5091751;28;20560;-71
2021/04/28 03:02:17;;;;;;;5.88;2.90;;;5.30;92.60;;;;;;5091687;28;20249;-69
2021/04/28 03:04:45;;;;;;;4.72;3.25;;;5.30;93.00;;;;;;5090811;28;20218;-74
2021/04/28 03:07:14;;;;;;;9.95;3.45;;;5.30;92.70;;;;;;5093811;28;20206;-71
2021/04/28 03:09:41;;;;;;;4.68;3.13;;;5.30;93.00;;;;;;5100274;28;20339;-73
2021/04/28 03:12:09;;;;;;;7.60;2.85;;;5.20;92.90;;;;;;5090675;28;20206;-71
2021/04/28 03:14:36;;;;;;;4.47;3.35;;;5.30;93.00;;;;;;5101636;28;20217;-71
2021/04/28 03:17:03;;;;;;;4.57;3.10;;;5.20;92.90;;;;;;5097688;28;20216;-71
2021/04/28 03:19:31;;;;;;;6.32;3.15;;;5.20;93.10;;;;;;5100068;28;20284;-72
2021/04/28 03:21:58;;;;;;;3.70;3.03;;;5.20;93.20;;;;;;5107221;28;20288;-70
2021/04/28 03:24:26;;;;;;;11.40;4.18;;;5.30;93.10;;;;;;5103943;28;20222;-73
2021/04/28 03:26:54;;;;;;;4.75;3.15;;;5.30;93.10;;;;;;5095466;28;20610;-71
2021/04/28 03:29:21;;;;;;;3.30;2.85;;;5.20;93.00;;;;;;5095220;28;20198;-72
2021/04/28 03:31:47;;;;;;;4.55;2.92;;;5.20;93.10;;;;;;5093493;28;20210;-71
2021/04/28 03:34:21;;;;;;;5.25;3.13;;;5.20;93.10;;;;;;5091297;28;20572;-72
2021/04/28 03:36:48;;;;;;;4.30;2.97;;;5.20;93.40;;;;;;5098732;28;20237;-71
2021/04/28 03:39:15;;;;;;;6.10;3.65;;;5.10;93.40;;;;;;5092840;28;20537;-72
2021/04/28 03:41:42;;;;;;;4.90;2.65;;;5.20;93.10;;;;;;5095460;28;20544;-70
2021/04/28 03:44:09;;;;;;;5.35;3.35;;;5.20;93.20;;;;;;5095118;28;20240;-72
2021/04/28 03:46:36;;;;;;;6.03;3.53;;;5.20;93.40;;;;;;5094844;28;20194;-70
2021/04/28 03:49:02;;;;;;;5.70;3.40;;;5.20;93.10;;;;;;5088596;28;20203;-70
2021/04/28 03:51:29;;;;;;;4.43;3.13;;;5.10;93.30;;;;;;5105925;28;20197;-71
2021/04/28 03:53:56;;;;;;;4.45;2.70;;;5.10;93.30;;;;;;5103137;28;20711;-72
2021/04/28 03:56:25;;;;;;;4.00;3.35;;;5.10;93.10;;;;;;5105962;28;20327;-72
2021/04/28 03:58:52;;;;;;;6.75;3.65;;;5.10;93.10;;;;;;5103141;28;20275;-72
2021/04/28 04:01:20;;;;;;;3.97;3.30;;;5.10;93.20;;;;;;5097900;28;20579;-71
2021/04/28 04:03:47;;;;;;;3.40;2.63;;;5.10;93.10;;;;;;5094542;28;20250;-72
2021/04/28 04:06:13;;;;;;;4.70;3.60;;;5.10;93.10;;;;;;5110365;28;20555;-75
2021/04/28 04:08:40;;;;;;;4.57;3.35;;;5.10;93.00;;;;;;5090200;28;20566;-69
2021/04/28 04:11:07;;;;;;;4.85;2.83;;;5.10;93.00;;;;;;5104338;28;20213;-69
2021/04/28 04:13:33;;;;;;;5.45;3.03;;;5.00;93.10;;;;;;5097706;28;20596;-71
2021/04/28 04:16:01;;;;;;;5.72;3.00;;;5.00;93.10;;;;;;5093808;28;20564;-74
2021/04/28 04:18:28;;;;;;;6.85;2.90;;;5.00;93.10;;;;;;5093204;28;20341;-71
2021/04/28 04:20:55;;;;;;;4.80;3.40;;;5.10;92.90;;;;;;5105411;28;20285;-74
2021/04/28 04:23:21;;;;;;;6.43;3.60;;;5.10;92.70;;;;;;5091681;28;20225;-70
2021/04/28 04:25:48;;;;;;;4.43;3.67;;;5.10;92.60;;;;;;5096304;28;20255;-70
2021/04/28 04:28:15;;;;;;;5.82;3.35;;;5.10;92.60;;;;;;5097181;28;20198;-71
2021/04/28 04:30:41;;;;;;;4.75;3.53;;;5.20;92.40;;;;;;5096646;28;20575;-74
2021/04/28 04:33:10;;;;;;;4.88;3.17;;;5.20;92.30;;;;;;5091630;28;20247;-75
2021/04/28 04:35:37;;;;;;;5.75;3.33;;;5.20;92.20;;;;;;5098061;28;20748;-73
2021/04/28 04:38:04;;;;;;;3.85;3.03;;;5.20;92.20;;;;;;5101973;28;20224;-75
2021/04/28 04:40:31;;;;;;;5.82;4.03;;;5.30;92.00;;;;;;5100697;28;20206;-73
2021/04/28 04:42:58;;;;;;;4.18;3.55;;;5.30;91.60;;;;;;5096496;28;20201;-74
2021/04/28 04:45:25;;;;;;;5.93;3.55;;;5.40;91.50;;;;;;5086044;28;20662;-74
2021/04/28 04:47:52;;;;;;;3.95;2.97;;;5.50;91.00;;;;;;5093837;28;20266;-70
2021/04/28 04:50:20;;;;;;;5.90;3.80;;;5.50;90.90;;;;;;5086066;28;20274;-73
2021/04/28 04:52:50;;;;;;;5.85;3.45;;;5.60;90.90;;;;;;5088864;28;20293;-71
2021/04/28 04:55:17;;;;;;;5.85;3.97;;;5.70;90.40;;;;;;5099844;28;20218;-73
2021/04/28 04:57:44;;;;;;;4.40;3.05;;;5.70;90.30;;;;;;5093701;28;20202;-73
2021/04/28 05:00:11;;;;;;;10.52;3.60;;;5.90;90.00;;;;;;5094553;28;20232;-74
2021/04/28 05:16:14;;;;;;;5.50;3.53;;;10.80;71.10;;;;;;5068417;28;20672;-85
2021/04/28 05:18:41;;;;;;;4.43;3.53;;;11.70;66.90;;;;;;5073543;28;20228;-86
2021/04/28 17:22:36;;;;;;;7.00;5.00;;;18.70;41.50;;;;;;4965774;28;20508;-83
2021/04/28 17:25:08;;;;;;;8.17;5.83;;;18.70;41.50;;;;;;5057813;28;20434;-84
2021/04/28 17:34:40;;;;;;;7.10;5.37;;;18.60;41.90;;;;;;4954335;28;20431;-79
2021/04/28 17:37:09;;;;;;;7.17;5.60;;;18.60;42.20;;;;;;4973599;28;20459;-81
2021/04/28 17:39:42;;;;;;;5.53;5.00;;;18.60;42.30;;;;;;4975374;28;20475;-83
2021/04/28 17:44:54;;;;;;;7.07;5.23;;;18.60;42.40;;;;;;4976877;28;20448;-85
2021/04/28 17:47:50;;;;;;;7.07;6.37;;;18.60;42.80;;;;;;4974951;28;20584;-86
2021/04/28 17:50:18;;;;;;;6.40;5.77;;;18.50;43.10;;;;;;4980011;28;20473;-85
2021/04/28 19:35:59;;;;;;;10.85;9.38;;;16.00;55.40;;;;;;4991829;28;20240;-87
2021/04/28 20:16:53;;;;;;;7.05;5.68;;;15.80;54.50;;;;;;5037800;28;20232;-85
2021/04/28 21:34:00;;;;;;;11.40;9.05;;;15.40;57.80;;;;;;4784488;30;20363;-86
2021/04/28 21:36:52;;;;;;;9.15;7.82;;;15.30;58.20;;;;;;4785096;29;20217;-86
2021/04/28 21:40:25;;;;;;;10.10;8.50;;;15.30;58.50;;;;;;4830190;29;20256;-84
2021/04/28 22:13:48;;;;;;;13.80;8.95;;;14.50;60.90;;;;;;4751321;30;20232;-84
